sensor_id;sensor_type;location;lat;lon;timestamp;pressure;altitude;pressure_sealevel;temperature;humidity
63970;BME280;50156;37.772;-122.432;2022-12-19T00:00:49;101192.86;;;13.06;100.00
63970;BME280;50156;37.772;-122.432;2022-12-19T00:03:18;101194.43;;;12.84;100.00
63970;BME280;50156;37.772;-122.432;2022-12-19T00:05:46;101183.59;;;12.60;100.00
63970;BME280;50156;37.772;-122.432;2022-12-19T00:08:15;101181.57;;;12.31;100.00
63970;BME280;50156;37.772;-122.432;2022-12-19T00:10:52;101168.42;;;12.37;100.00
63970;BME280;50156;37.772;-122.432;2022-12-19T00:13:22;101157.19;;;12.20;100.00
63970;BME280;50156;37.772;-122.432;2022-12-19T00:15:51;101157.24;;;11.99;100.00
63970;BME280;50156;37.772;-122.432;2022-12-19T00:18:20;101161.23;;;11.68;100.00
63970;BME280;50156;37.772;-122.432;2022-12-19T00:20:56;101175.36;;;11.52;100.00
63970;BME280;50156;37.772;-122.432;2022-12-19T00:23:27;101182.17;;;11.27;100.00
63970;BME280;50156;37.772;-122.432;2022-12-19T00:26:05;101183.93;;;11.11;100.00
63970;BME280;50156;37.772;-122.432;2022-12-19T00:28:33;101175.01;;;10.99;100.00
63970;BME280;50156;37.772;-122.432;2022-12-19T00:31:03;101159.37;;;10.84;100.00
63970;BME280;50156;37.772;-122.432;2022-12-19T00:33:32;101131.85;;;10.70;100.00
63970;BME280;50156;37.772;-122.432;2022-12-19T00:36:02;101105.92;;;10.52;100.00
63970;BME280;50156;37.772;-122.432;2022-12-19T00:38:31;101084.12;;;10.46;100.00
63970;BME280;50156;37.772;-122.432;2022-12-19T00:41:07;101060.25;;;10.45;100.00
63970;BME280;50156;37.772;-122.432;2022-12-19T00:43:36;101050.28;;;10.37;100.00
63970;BME280;50156;37.772;-122.432;2022-12-19T00:46:06;101033.63;;;10.26;100.00
63970;BME280;50156;37.772;-122.432;2022-12-19T00:48:36;101024.00;;;10.21;100.00
63970;BME280;50156;37.772;-122.432;2022-12-19T00:51:08;101018.89;;;10.08;100.00
63970;BME280;50156;37.772;-122.432;2022-12-19T00:53:37;101015.60;;;10.00;100.00
63970;BME280;50156;37.772;-122.432;2022-12-19T00:56:08;101006.61;;;9.93;100.00
63970;BME280;50156;37.772;-122.432;2022-12-19T00:58:38;100997.30;;;9.82;100.00
63970;BME280;50156;37.772;-122.432;2022-12-19T01:01:08;100999.50;;;9.77;100.00
63970;BME280;50156;37.772;-122.432;2022-12-19T01:03:36;101006.34;;;9.73;100.00
63970;BME280;50156;37.772;-122.432;2022-12-19T01:06:05;101015.22;;;9.73;100.00
63970;BME280;50156;37.772;-122.432;2022-12-19T01:08:35;101018.98;;;9.68;100.00
63970;BME280;50156;37.772;-122.432;2022-12-19T01:11:04;101017.36;;;9.63;100.00
63970;BME280;50156;37.772;-122.432;2022-12-19T01:13:34;101015.32;;;9.59;100.00
63970;BME280;50156;37.772;-122.432;2022-12-19T01:16:05;101017.53;;;9.46;100.00
63970;BME280;50156;37.772;-122.432;2022-12-19T01:18:34;101022.84;;;9.38;100.00
63970;BME280;50156;37.772;-122.432;2022-12-19T01:21:05;101028.94;;;9.39;100.00
63970;BME280;50156;37.772;-122.432;2022-12-19T01:23:35;101036.28;;;9.36;100.00
63970;BME280;50156;37.772;-122.432;2022-12-19T01:26:04;101040.03;;;9.29;100.00
63970;BME280;50156;37.772;-122.432;2022-12-19T01:28:33;101033.78;;;9.26;100.00
63970;BME280;50156;37.772;-122.432;2022-12-19T01:31:05;101025.81;;;9.18;100.00
63970;BME280;50156;37.772;-122.432;2022-12-19T01:33:33;101018.58;;;9.15;100.00
63970;BME280;50156;37.772;-122.432;2022-12-19T01:36:02;101011.64;;;9.09;100.00
63970;BME280;50156;37.772;-122.432;2022-12-19T01:38:31;101006.79;;;9.09;100.00
63970;BME280;50156;37.772;-122.432;2022-12-19T01:40:59;101000.15;;;9.09;100.00
63970;BME280;50156;37.772;-122.432;2022-12-19T01:43:31;100988.59;;;9.02;100.00
63970;BME280;50156;37.772;-122.432;2022-12-19T01:46:03;100969.46;;;8.95;100.00
63970;BME280;50156;37.772;-122.432;2022-12-19T01:48:35;100959.76;;;8.93;100.00
63970;BME280;50156;37.772;-122.432;2022-12-19T01:51:13;100956.09;;;8.88;100.00
63970;BME280;50156;37.772;-122.432;2022-12-19T01:53:47;100949.29;;;8.91;100.00
63970;BME280;50156;37.772;-122.432;2022-12-19T01:56:20;100945.07;;;8.85;100.00
63970;BME280;50156;37.772;-122.432;2022-12-19T01:58:51;100937.15;;;8.81;100.00
63970;BME280;50156;37.772;-122.432;2022-12-19T02:01:21;100938.11;;;8.74;100.00
63970;BME280;50156;37.772;-122.432;2022-12-19T02:03:50;100933.48;;;8.77;100.00
63970;BME280;50156;37.772;-122.432;2022-12-19T02:06:20;100939.81;;;8.76;100.00
63970;BME280;50156;37.772;-122.432;2022-12-19T02:08:49;100943.36;;;8.75;100.00
63970;BME280;50156;37.772;-122.432;2022-12-19T02:11:17;100951.60;;;8.74;100.00
63970;BME280;50156;37.772;-122.432;2022-12-19T02:13:46;100962.26;;;8.72;100.00
63970;BME280;50156;37.772;-122.432;2022-12-19T02:16:24;100963.59;;;8.71;100.00
63970;BME280;50156;37.772;-122.432;2022-12-19T02:19:01;100954.18;;;8.61;100.00
63970;BME280;50156;37.772;-122.432;2022-12-19T02:21:40;100940.83;;;8.60;100.00
63970;BME280;50156;37.772;-122.432;2022-12-19T02:25:00;100934.81;;;8.56;100.00
63970;BME280;50156;37.772;-122.432;2022-12-19T02:27:52;100940.26;;;8.55;100.00
63970;BME280;50156;37.772;-122.432;2022-12-19T02:30:40;100944.92;;;8.52;100.00
63970;BME280;50156;37.772;-122.432;2022-12-19T02:33:15;100949.37;;;8.53;100.00
63970;BME280;50156;37.772;-122.432;2022-12-19T02:35:50;100954.70;;;8.53;100.00
63970;BME280;50156;37.772;-122.432;2022-12-19T02:38:24;100963.58;;;8.56;100.00
63970;BME280;50156;37.772;-122.432;2022-12-19T02:40:59;100968.48;;;8.54;100.00
63970;BME280;50156;37.772;-122.432;2022-12-19T02:43:34;100975.83;;;8.50;100.00
63970;BME280;50156;37.772;-122.432;2022-12-19T02:46:06;100980.26;;;8.47;100.00
63970;BME280;50156;37.772;-122.432;2022-12-19T02:48:37;100985.59;;;8.42;100.00
63970;BME280;50156;37.772;-122.432;2022-12-19T02:51:06;100996.54;;;8.41;100.00
63970;BME280;50156;37.772;-122.432;2022-12-19T02:53:35;100996.16;;;8.45;100.00
63970;BME280;50156;37.772;-122.432;2022-12-19T02:56:15;100997.60;;;8.44;100.00
63970;BME280;50156;37.772;-122.432;2022-12-19T02:58:55;100999.57;;;8.40;100.00
63970;BME280;50156;37.772;-122.432;2022-12-19T03:01:41;101006.26;;;8.41;100.00
63970;BME280;50156;37.772;-122.432;2022-12-19T03:04:19;101013.10;;;8.30;100.00
63970;BME280;50156;37.772;-122.432;2022-12-19T03:06:54;101011.35;;;8.27;100.00
63970;BME280;50156;37.772;-122.432;2022-12-19T03:09:33;101012.27;;;8.23;100.00
63970;BME280;50156;37.772;-122.432;2022-12-19T03:12:10;101013.24;;;8.17;100.00
63970;BME280;50156;37.772;-122.432;2022-12-19T03:14:43;101013.20;;;8.11;100.00
63970;BME280;50156;37.772;-122.432;2022-12-19T03:17:13;101018.41;;;8.07;100.00
63970;BME280;50156;37.772;-122.432;2022-12-19T03:19:42;101023.66;;;8.05;100.00
63970;BME280;50156;37.772;-122.432;2022-12-19T03:22:11;101024.89;;;8.13;100.00
63970;BME280;50156;37.772;-122.432;2022-12-19T03:24:40;101032.16;;;8.13;100.00
63970;BME280;50156;37.772;-122.432;2022-12-19T03:27:12;101037.34;;;8.11;100.00
63970;BME280;50156;37.772;-122.432;2022-12-19T03:29:48;101037.36;;;8.11;100.00
63970;BME280;50156;37.772;-122.432;2022-12-19T03:32:20;101047.37;;;8.13;100.00
63970;BME280;50156;37.772;-122.432;2022-12-19T03:34:52;101055.37;;;8.08;100.00
63970;BME280;50156;37.772;-122.432;2022-12-19T03:37:27;101060.15;;;8.15;100.00
63970;BME280;50156;37.772;-122.432;2022-12-19T03:40:00;101064.18;;;8.16;100.00
63970;BME280;50156;37.772;-122.432;2022-12-19T03:42:30;101061.85;;;8.14;100.00
63970;BME280;50156;37.772;-122.432;2022-12-19T03:45:02;101059.53;;;8.08;100.00
63970;BME280;50156;37.772;-122.432;2022-12-19T03:47:36;101064.80;;;8.05;100.00
63970;BME280;50156;37.772;-122.432;2022-12-19T03:50:07;101068.42;;;8.03;100.00
63970;BME280;50156;37.772;-122.432;2022-12-19T03:52:44;101073.35;;;7.94;100.00
63970;BME280;50156;37.772;-122.432;2022-12-19T03:55:18;101075.88;;;7.95;100.00
63970;BME280;50156;37.772;-122.432;2022-12-19T03:57:52;101077.09;;;7.97;100.00
63970;BME280;50156;37.772;-122.432;2022-12-19T04:00:24;101081.08;;;7.98;100.00
63970;BME280;50156;37.772;-122.432;2022-12-19T04:02:55;101084.60;;;7.99;100.00
63970;BME280;50156;37.772;-122.432;2022-12-19T04:05:26;101089.35;;;7.92;100.00
63970;BME280;50156;37.772;-122.432;2022-12-19T04:07:58;101097.89;;;7.93;100.00
63970;BME280;50156;37.772;-122.432;2022-12-19T04:10:29;101109.73;;;7.83;100.00
63970;BME280;50156;37.772;-122.432;2022-12-19T04:13:05;101114.49;;;7.80;100.00
63970;BME280;50156;37.772;-122.432;2022-12-19T04:15:45;101120.34;;;7.80;100.00
63970;BME280;50156;37.772;-122.432;2022-12-19T04:18:18;101119.68;;;7.82;100.00
63970;BME280;50156;37.772;-122.432;2022-12-19T04:20:53;101118.17;;;7.90;100.00
63970;BME280;50156;37.772;-122.432;2022-12-19T04:23:30;101118.61;;;7.92;100.00
63970;BME280;50156;37.772;-122.432;2022-12-19T04:26:02;101116.32;;;7.85;100.00
63970;BME280;50156;37.772;-122.432;2022-12-19T04:28:35;101118.63;;;7.78;100.00
63970;BME280;50156;37.772;-122.432;2022-12-19T04:31:06;101121.96;;;7.78;100.00
63970;BME280;50156;37.772;-122.432;2022-12-19T04:33:37;101125.36;;;7.72;100.00
63970;BME280;50156;37.772;-122.432;2022-12-19T04:36:06;101126.43;;;7.66;100.00
63970;BME280;50156;37.772;-122.432;2022-12-19T04:38:35;101123.75;;;7.64;100.00
63970;BME280;50156;37.772;-122.432;2022-12-19T04:41:03;101124.38;;;7.64;100.00
63970;BME280;50156;37.772;-122.432;2022-12-19T04:43:32;101123.48;;;7.70;100.00
63970;BME280;50156;37.772;-122.432;2022-12-19T04:46:01;101121.05;;;7.65;100.00
63970;BME280;50156;37.772;-122.432;2022-12-19T04:48:29;101122.39;;;7.58;100.00
63970;BME280;50156;37.772;-122.432;2022-12-19T04:50:58;101121.96;;;7.60;100.00
63970;BME280;50156;37.772;-122.432;2022-12-19T04:53:27;101122.27;;;7.57;100.00
63970;BME280;50156;37.772;-122.432;2022-12-19T04:56:00;101124.32;;;7.50;100.00
63970;BME280;50156;37.772;-122.432;2022-12-19T04:58:30;101124.29;;;7.48;100.00
63970;BME280;50156;37.772;-122.432;2022-12-19T05:01:01;101125.40;;;7.42;100.00
63970;BME280;50156;37.772;-122.432;2022-12-19T05:03:29;101120.60;;;7.37;100.00
63970;BME280;50156;37.772;-122.432;2022-12-19T05:06:04;101123.52;;;7.30;100.00
63970;BME280;50156;37.772;-122.432;2022-12-19T05:08:33;101123.07;;;7.25;100.00
63970;BME280;50156;37.772;-122.432;2022-12-19T05:11:03;101124.98;;;7.26;100.00
63970;BME280;50156;37.772;-122.432;2022-12-19T05:13:33;101120.10;;;7.27;100.00
63970;BME280;50156;37.772;-122.432;2022-12-19T05:16:03;101120.95;;;7.28;100.00
63970;BME280;50156;37.772;-122.432;2022-12-19T05:18:33;101122.59;;;7.23;100.00
63970;BME280;50156;37.772;-122.432;2022-12-19T05:21:02;101125.90;;;7.16;100.00
63970;BME280;50156;37.772;-122.432;2022-12-19T05:23:31;101126.48;;;7.18;100.00
63970;BME280;50156;37.772;-122.432;2022-12-19T05:26:01;101131.19;;;7.13;100.00
63970;BME280;50156;37.772;-122.432;2022-12-19T05:28:31;101137.81;;;7.13;100.00
63970;BME280;50156;37.772;-122.432;2022-12-19T05:31:05;101138.64;;;7.08;100.00
63970;BME280;50156;37.772;-122.432;2022-12-19T05:33:34;101140.36;;;7.03;100.00
63970;BME280;50156;37.772;-122.432;2022-12-19T05:36:03;101137.42;;;6.97;100.00
63970;BME280;50156;37.772;-122.432;2022-12-19T05:38:32;101137.77;;;6.89;100.00
63970;BME280;50156;37.772;-122.432;2022-12-19T05:41:06;101144.95;;;6.90;100.00
63970;BME280;50156;37.772;-122.432;2022-12-19T05:43:36;101151.65;;;6.85;100.00
63970;BME280;50156;37.772;-122.432;2022-12-19T05:46:05;101157.44;;;6.84;100.00
63970;BME280;50156;37.772;-122.432;2022-12-19T05:48:35;101164.58;;;6.81;100.00
63970;BME280;50156;37.772;-122.432;2022-12-19T05:51:04;101171.55;;;6.81;100.00
63970;BME280;50156;37.772;-122.432;2022-12-19T05:53:34;101176.82;;;6.77;100.00
63970;BME280;50156;37.772;-122.432;2022-12-19T05:56:04;101188.48;;;6.75;100.00
63970;BME280;50156;37.772;-122.432;2022-12-19T05:58:33;101199.89;;;6.75;100.00
63970;BME280;50156;37.772;-122.432;2022-12-19T06:01:06;101207.79;;;6.66;100.00
63970;BME280;50156;37.772;-122.432;2022-12-19T06:03:36;101216.85;;;6.63;100.00
63970;BME280;50156;37.772;-122.432;2022-12-19T06:06:06;101221.41;;;6.56;100.00
63970;BME280;50156;37.772;-122.432;2022-12-19T06:08:36;101231.02;;;6.45;100.00
63970;BME280;50156;37.772;-122.432;2022-12-19T06:11:07;101237.41;;;6.44;100.00
63970;BME280;50156;37.772;-122.432;2022-12-19T06:13:37;101238.26;;;6.48;100.00
63970;BME280;50156;37.772;-122.432;2022-12-19T06:16:09;101236.74;;;6.47;100.00
63970;BME280;50156;37.772;-122.432;2022-12-19T06:18:40;101239.36;;;6.36;100.00
63970;BME280;50156;37.772;-122.432;2022-12-19T06:21:12;101248.51;;;6.35;100.00
63970;BME280;50156;37.772;-122.432;2022-12-19T06:23:41;101253.27;;;6.27;100.00
63970;BME280;50156;37.772;-122.432;2022-12-19T06:26:12;101257.46;;;6.23;100.00
63970;BME280;50156;37.772;-122.432;2022-12-19T06:28:41;101269.66;;;6.18;100.00
63970;BME280;50156;37.772;-122.432;2022-12-19T06:31:10;101280.28;;;6.09;100.00
63970;BME280;50156;37.772;-122.432;2022-12-19T06:33:39;101290.91;;;6.08;100.00
63970;BME280;50156;37.772;-122.432;2022-12-19T06:36:12;101299.93;;;6.08;100.00
63970;BME280;50156;37.772;-122.432;2022-12-19T06:38:42;101306.84;;;6.06;100.00
63970;BME280;50156;37.772;-122.432;2022-12-19T06:41:10;101320.54;;;6.09;100.00
63970;BME280;50156;37.772;-122.432;2022-12-19T06:43:39;101337.28;;;6.06;100.00
63970;BME280;50156;37.772;-122.432;2022-12-19T06:46:08;101352.95;;;6.07;100.00
63970;BME280;50156;37.772;-122.432;2022-12-19T06:48:37;101367.07;;;6.07;100.00
63970;BME280;50156;37.772;-122.432;2022-12-19T06:51:05;101381.12;;;6.10;100.00
63970;BME280;50156;37.772;-122.432;2022-12-19T06:53:34;101386.83;;;6.11;100.00
63970;BME280;50156;37.772;-122.432;2022-12-19T06:56:03;101400.67;;;6.01;100.00
63970;BME280;50156;37.772;-122.432;2022-12-19T06:58:33;101408.34;;;6.01;100.00
63970;BME280;50156;37.772;-122.432;2022-12-19T07:01:02;101416.73;;;6.00;100.00
63970;BME280;50156;37.772;-122.432;2022-12-19T07:03:33;101425.47;;;5.97;100.00
63970;BME280;50156;37.772;-122.432;2022-12-19T07:06:03;101432.84;;;5.92;100.00
63970;BME280;50156;37.772;-122.432;2022-12-19T07:08:32;101442.19;;;5.89;100.00
63970;BME280;50156;37.772;-122.432;2022-12-19T07:11:01;101453.63;;;5.84;100.00
63970;BME280;50156;37.772;-122.432;2022-12-19T07:13:30;101463.67;;;5.84;100.00
63970;BME280;50156;37.772;-122.432;2022-12-19T07:16:00;101468.52;;;5.84;100.00
63970;BME280;50156;37.772;-122.432;2022-12-19T07:18:32;101476.95;;;5.83;100.00
63970;BME280;50156;37.772;-122.432;2022-12-19T07:21:02;101483.76;;;5.82;100.00
63970;BME280;50156;37.772;-122.432;2022-12-19T07:23:32;101495.43;;;5.86;100.00
63970;BME280;50156;37.772;-122.432;2022-12-19T07:26:01;101505.64;;;5.83;100.00
63970;BME280;50156;37.772;-122.432;2022-12-19T07:28:30;101511.98;;;5.86;100.00
63970;BME280;50156;37.772;-122.432;2022-12-19T07:31:00;101520.69;;;5.89;100.00
63970;BME280;50156;37.772;-122.432;2022-12-19T07:33:29;101523.19;;;5.86;100.00
63970;BME280;50156;37.772;-122.432;2022-12-19T07:35:58;101533.30;;;5.87;100.00
63970;BME280;50156;37.772;-122.432;2022-12-19T07:38:26;101537.23;;;5.87;100.00
63970;BME280;50156;37.772;-122.432;2022-12-19T07:40:55;101546.01;;;5.90;100.00
63970;BME280;50156;37.772;-122.432;2022-12-19T07:43:24;101554.44;;;5.91;100.00
63970;BME280;50156;37.772;-122.432;2022-12-19T07:45:54;101556.70;;;5.91;100.00
63970;BME280;50156;37.772;-122.432;2022-12-19T07:48:23;101555.83;;;5.89;100.00
63970;BME280;50156;37.772;-122.432;2022-12-19T07:50:52;101556.04;;;5.90;100.00
63970;BME280;50156;37.772;-122.432;2022-12-19T07:53:20;101554.14;;;5.91;100.00
63970;BME280;50156;37.772;-122.432;2022-12-19T07:55:50;101555.18;;;5.89;100.00
63970;BME280;50156;37.772;-122.432;2022-12-19T07:58:19;101559.06;;;5.89;100.00
63970;BME280;50156;37.772;-122.432;2022-12-19T08:00:54;101560.96;;;5.85;100.00
63970;BME280;50156;37.772;-122.432;2022-12-19T08:03:23;101559.16;;;5.80;100.00
63970;BME280;50156;37.772;-122.432;2022-12-19T08:05:52;101561.37;;;5.81;100.00
63970;BME280;50156;37.772;-122.432;2022-12-19T08:08:21;101563.65;;;5.76;100.00
63970;BME280;50156;37.772;-122.432;2022-12-19T08:10:50;101566.08;;;5.75;100.00
63970;BME280;50156;37.772;-122.432;2022-12-19T08:13:18;101576.70;;;5.72;100.00
63970;BME280;50156;37.772;-122.432;2022-12-19T08:15:47;101575.33;;;5.71;100.00
63970;BME280;50156;37.772;-122.432;2022-12-19T08:18:16;101574.99;;;5.70;100.00
63970;BME280;50156;37.772;-122.432;2022-12-19T08:20:44;101579.24;;;5.67;100.00
63970;BME280;50156;37.772;-122.432;2022-12-19T08:23:13;101582.99;;;5.67;100.00
63970;BME280;50156;37.772;-122.432;2022-12-19T08:25:42;101585.90;;;5.64;100.00
63970;BME280;50156;37.772;-122.432;2022-12-19T08:28:10;101586.65;;;5.62;100.00
63970;BME280;50156;37.772;-122.432;2022-12-19T08:30:39;101591.21;;;5.58;100.00
63970;BME280;50156;37.772;-122.432;2022-12-19T08:33:07;101596.92;;;5.56;100.00
63970;BME280;50156;37.772;-122.432;2022-12-19T08:35:36;101607.39;;;5.58;100.00
63970;BME280;50156;37.772;-122.432;2022-12-19T08:38:05;101613.60;;;5.60;100.00
63970;BME280;50156;37.772;-122.432;2022-12-19T08:40:33;101616.82;;;5.58;100.00
63970;BME280;50156;37.772;-122.432;2022-12-19T08:43:02;101621.16;;;5.54;100.00
63970;BME280;50156;37.772;-122.432;2022-12-19T08:45:30;101626.07;;;5.59;100.00
63970;BME280;50156;37.772;-122.432;2022-12-19T08:47:59;101629.19;;;5.61;100.00
63970;BME280;50156;37.772;-122.432;2022-12-19T08:50:28;101625.20;;;5.54;100.00
63970;BME280;50156;37.772;-122.432;2022-12-19T08:52:56;101621.84;;;5.58;100.00
63970;BME280;50156;37.772;-122.432;2022-12-19T08:55:25;101624.27;;;5.57;100.00
63970;BME280;50156;37.772;-122.432;2022-12-19T08:57:54;101625.64;;;5.58;100.00
63970;BME280;50156;37.772;-122.432;2022-12-19T09:00:23;101628.86;;;5.59;100.00
63970;BME280;50156;37.772;-122.432;2022-12-19T09:02:52;101632.06;;;5.57;100.00
63970;BME280;50156;37.772;-122.432;2022-12-19T09:05:20;101638.60;;;5.55;100.00
63970;BME280;50156;37.772;-122.432;2022-12-19T09:07:49;101640.68;;;5.56;100.00
63970;BME280;50156;37.772;-122.432;2022-12-19T09:10:17;101644.60;;;5.54;100.00
63970;BME280;50156;37.772;-122.432;2022-12-19T09:12:46;101648.92;;;5.56;100.00
63970;BME280;50156;37.772;-122.432;2022-12-19T09:15:15;101656.91;;;5.56;100.00
63970;BME280;50156;37.772;-122.432;2022-12-19T09:17:44;101667.88;;;5.56;100.00
63970;BME280;50156;37.772;-122.432;2022-12-19T09:20:13;101674.54;;;5.55;100.00
63970;BME280;50156;37.772;-122.432;2022-12-19T09:22:42;101679.64;;;5.57;100.00
63970;BME280;50156;37.772;-122.432;2022-12-19T09:25:10;101690.70;;;5.61;100.00
63970;BME280;50156;37.772;-122.432;2022-12-19T09:27:39;101709.33;;;5.59;100.00
63970;BME280;50156;37.772;-122.432;2022-12-19T09:30:09;101716.16;;;5.51;100.00
63970;BME280;50156;37.772;-122.432;2022-12-19T09:32:38;101726.04;;;5.47;100.00
63970;BME280;50156;37.772;-122.432;2022-12-19T09:35:08;101732.48;;;5.51;100.00
63970;BME280;50156;37.772;-122.432;2022-12-19T09:37:36;101739.72;;;5.42;100.00
63970;BME280;50156;37.772;-122.432;2022-12-19T09:40:06;101740.69;;;5.43;100.00
63970;BME280;50156;37.772;-122.432;2022-12-19T09:42:53;101743.44;;;5.41;100.00
63970;BME280;50156;37.772;-122.432;2022-12-19T09:45:37;101742.16;;;5.36;100.00
63970;BME280;50156;37.772;-122.432;2022-12-19T09:48:12;101743.17;;;5.35;100.00
63970;BME280;50156;37.772;-122.432;2022-12-19T09:50:50;101749.60;;;5.33;100.00
63970;BME280;50156;37.772;-122.432;2022-12-19T09:53:26;101750.50;;;5.33;100.00
63970;BME280;50156;37.772;-122.432;2022-12-19T09:55:58;101750.01;;;5.22;100.00
63970;BME280;50156;37.772;-122.432;2022-12-19T09:58:34;101747.68;;;5.21;100.00
63970;BME280;50156;37.772;-122.432;2022-12-19T10:01:12;101752.01;;;5.24;100.00
63970;BME280;50156;37.772;-122.432;2022-12-19T10:03:45;101750.92;;;5.19;100.00
63970;BME280;50156;37.772;-122.432;2022-12-19T10:06:19;101756.69;;;5.21;100.00
63970;BME280;50156;37.772;-122.432;2022-12-19T10:08:47;101761.01;;;5.16;100.00
63970;BME280;50156;37.772;-122.432;2022-12-19T10:11:31;101760.03;;;5.09;100.00
63970;BME280;50156;37.772;-122.432;2022-12-19T10:14:16;101752.06;;;5.07;100.00
63970;BME280;50156;37.772;-122.432;2022-12-19T10:16:54;101758.41;;;5.05;100.00
63970;BME280;50156;37.772;-122.432;2022-12-19T10:19:35;101760.59;;;5.07;100.00
63970;BME280;50156;37.772;-122.432;2022-12-19T10:22:16;101763.57;;;5.07;100.00
63970;BME280;50156;37.772;-122.432;2022-12-19T10:25:02;101767.10;;;5.07;100.00
63970;BME280;50156;37.772;-122.432;2022-12-19T10:27:41;101772.70;;;5.11;100.00
63970;BME280;50156;37.772;-122.432;2022-12-19T10:30:16;101767.82;;;5.07;100.00
63970;BME280;50156;37.772;-122.432;2022-12-19T10:32:57;101768.25;;;5.08;100.00
63970;BME280;50156;37.772;-122.432;2022-12-19T10:35:32;101766.66;;;5.14;100.00
63970;BME280;50156;37.772;-122.432;2022-12-19T10:38:14;101764.81;;;5.16;100.00
63970;BME280;50156;37.772;-122.432;2022-12-19T10:40:50;101767.68;;;5.20;100.00
63970;BME280;50156;37.772;-122.432;2022-12-19T10:43:26;101773.07;;;5.14;100.00
63970;BME280;50156;37.772;-122.432;2022-12-19T10:46:01;101776.59;;;5.18;100.00
63970;BME280;50156;37.772;-122.432;2022-12-19T10:48:31;101776.40;;;5.16;100.00
63970;BME280;50156;37.772;-122.432;2022-12-19T10:51:00;101777.03;;;5.20;100.00
63970;BME280;50156;37.772;-122.432;2022-12-19T10:53:28;101778.52;;;5.21;100.00
63970;BME280;50156;37.772;-122.432;2022-12-19T10:56:01;101782.31;;;5.22;100.00
63970;BME280;50156;37.772;-122.432;2022-12-19T10:58:33;101783.59;;;5.22;100.00
63970;BME280;50156;37.772;-122.432;2022-12-19T11:01:10;101781.22;;;5.22;100.00
63970;BME280;50156;37.772;-122.432;2022-12-19T11:03:42;101749.10;;;5.25;100.00
63970;BME280;50156;37.772;-122.432;2022-12-19T11:06:42;101749.95;;;5.25;100.00
63970;BME280;50156;37.772;-122.432;2022-12-19T11:09:28;101758.10;;;5.19;100.00
63970;BME280;50156;37.772;-122.432;2022-12-19T11:12:04;101767.35;;;5.20;100.00
63970;BME280;50156;37.772;-122.432;2022-12-19T11:14:39;101769.76;;;5.22;100.00
63970;BME280;50156;37.772;-122.432;2022-12-19T11:17:25;101768.96;;;5.27;100.00
63970;BME280;50156;37.772;-122.432;2022-12-19T11:19:56;101772.13;;;5.18;100.00
63970;BME280;50156;37.772;-122.432;2022-12-19T11:22:27;101777.38;;;5.26;100.00
63970;BME280;50156;37.772;-122.432;2022-12-19T11:24:57;101783.19;;;5.28;100.00
63970;BME280;50156;37.772;-122.432;2022-12-19T11:27:35;101789.65;;;5.27;100.00
63970;BME280;50156;37.772;-122.432;2022-12-19T11:30:15;101793.09;;;5.24;100.00
63970;BME280;50156;37.772;-122.432;2022-12-19T11:32:47;101791.79;;;5.18;100.00
63970;BME280;50156;37.772;-122.432;2022-12-19T11:35:20;101793.19;;;5.27;100.00
63970;BME280;50156;37.772;-122.432;2022-12-19T11:37:52;101789.60;;;5.24;100.00
63970;BME280;50156;37.772;-122.432;2022-12-19T11:40:31;101792.01;;;5.20;100.00
63970;BME280;50156;37.772;-122.432;2022-12-19T11:43:05;101789.95;;;5.16;100.00
63970;BME280;50156;37.772;-122.432;2022-12-19T11:45:42;101792.82;;;5.16;100.00
63970;BME280;50156;37.772;-122.432;2022-12-19T11:48:20;101788.96;;;5.15;100.00
63970;BME280;50156;37.772;-122.432;2022-12-19T11:50:58;101792.15;;;5.11;100.00
63970;BME280;50156;37.772;-122.432;2022-12-19T11:53:31;101795.39;;;5.11;100.00
63970;BME280;50156;37.772;-122.432;2022-12-19T11:56:06;101793.69;;;5.11;100.00
63970;BME280;50156;37.772;-122.432;2022-12-19T11:58:37;101791.51;;;5.09;100.00
63970;BME280;50156;37.772;-122.432;2022-12-19T12:01:11;101794.33;;;5.05;100.00
63970;BME280;50156;37.772;-122.432;2022-12-19T12:04:01;101795.59;;;5.02;100.00
63970;BME280;50156;37.772;-122.432;2022-12-19T12:06:39;101791.74;;;5.05;100.00
63970;BME280;50156;37.772;-122.432;2022-12-19T12:09:17;101795.00;;;5.05;100.00
63970;BME280;50156;37.772;-122.432;2022-12-19T12:11:53;101790.52;;;4.96;100.00
63970;BME280;50156;37.772;-122.432;2022-12-19T12:14:31;101793.73;;;4.87;100.00
63970;BME280;50156;37.772;-122.432;2022-12-19T12:17:30;101802.52;;;4.91;100.00
63970;BME280;50156;37.772;-122.432;2022-12-19T12:20:18;101801.39;;;4.91;100.00
63970;BME280;50156;37.772;-122.432;2022-12-19T12:22:59;101800.18;;;4.88;100.00
63970;BME280;50156;37.772;-122.432;2022-12-19T12:25:42;101807.92;;;4.89;100.00
63970;BME280;50156;37.772;-122.432;2022-12-19T12:28:29;101812.80;;;4.90;100.00
63970;BME280;50156;37.772;-122.432;2022-12-19T12:31:19;101814.56;;;4.85;100.00
63970;BME280;50156;37.772;-122.432;2022-12-19T12:34:01;101811.52;;;4.87;100.00
63970;BME280;50156;37.772;-122.432;2022-12-19T12:36:39;101812.00;;;4.93;100.00
63970;BME280;50156;37.772;-122.432;2022-12-19T12:39:15;101820.06;;;4.86;100.00
63970;BME280;50156;37.772;-122.432;2022-12-19T12:41:57;101815.43;;;4.87;100.00
63970;BME280;50156;37.772;-122.432;2022-12-19T12:44:31;101815.20;;;4.79;100.00
63970;BME280;50156;37.772;-122.432;2022-12-19T12:47:08;101814.27;;;4.82;100.00